sensor_id;sensor_type;location;lat;lon;timestamp;temperature;humidity
72928;SHT30;61071;51.618;19.388;2023-03-21T00:01:29;9.65;83.92
72928;SHT30;61071;51.618;19.388;2023-03-21T00:03:55;9.62;83.93
72928;SHT30;61071;51.618;19.388;2023-03-21T00:06:20;9.63;83.78
72928;SHT30;61071;51.618;19.388;2023-03-21T00:08:47;9.57;83.89
72928;SHT30;61071;51.618;19.388;2023-03-21T00:11:13;9.49;84.13
72928;SHT30;61071;51.618;19.388;2023-03-21T00:13:39;9.45;84.16
72928;SHT30;61071;51.618;19.388;2023-03-21T00:16:13;9.45;84.25
72928;SHT30;61071;51.618;19.388;2023-03-21T00:18:42;9.23;84.75
72928;SHT30;61071;51.618;19.388;2023-03-21T00:21:16;9.19;85.09
72928;SHT30;61071;51.618;19.388;2023-03-21T00:23:43;9.31;84.66
72928;SHT30;61071;51.618;19.388;2023-03-21T00:26:09;9.44;84.27
72928;SHT30;61071;51.618;19.388;2023-03-21T00:28:37;9.40;84.21
72928;SHT30;61071;51.618;19.388;2023-03-21T00:31:03;9.35;84.30
72928;SHT30;61071;51.618;19.388;2023-03-21T00:33:30;9.31;84.32
72928;SHT30;61071;51.618;19.388;2023-03-21T00:35:55;9.28;84.15
72928;SHT30;61071;51.618;19.388;2023-03-21T00:38:23;9.27;84.05
72928;SHT30;61071;51.618;19.388;2023-03-21T00:40:49;9.28;84.13
72928;SHT30;61071;51.618;19.388;2023-03-21T00:43:15;9.31;84.04
72928;SHT30;61071;51.618;19.388;2023-03-21T00:45:49;9.27;84.32
72928;SHT30;61071;51.618;19.388;2023-03-21T00:48:16;9.31;84.39
72928;SHT30;61071;51.618;19.388;2023-03-21T00:50:44;9.32;84.47
72928;SHT30;61071;51.618;19.388;2023-03-21T00:53:12;9.31;84.30
72928;SHT30;61071;51.618;19.388;2023-03-21T00:55:38;9.30;84.33
72928;SHT30;61071;51.618;19.388;2023-03-21T00:58:04;9.30;84.26
72928;SHT30;61071;51.618;19.388;2023-03-21T01:00:32;9.30;84.49
72928;SHT30;61071;51.618;19.388;2023-03-21T01:02:58;9.28;84.54
72928;SHT30;61071;51.618;19.388;2023-03-21T01:05:34;9.27;84.56
72928;SHT30;61071;51.618;19.388;2023-03-21T01:08:20;9.28;84.58
72928;SHT30;61071;51.618;19.388;2023-03-21T01:10:48;9.27;84.49
72928;SHT30;61071;51.618;19.388;2023-03-21T01:13:17;9.21;84.86
72928;SHT30;61071;51.618;19.388;2023-03-21T01:15:54;9.14;84.97
72928;SHT30;61071;51.618;19.388;2023-03-21T01:18:25;9.20;85.02
72928;SHT30;61071;51.618;19.388;2023-03-21T01:20:54;9.20;85.04
72928;SHT30;61071;51.618;19.388;2023-03-21T01:23:21;9.17;85.23
72928;SHT30;61071;51.618;19.388;2023-03-21T01:25:48;9.10;85.69
72928;SHT30;61071;51.618;19.388;2023-03-21T01:28:15;9.17;85.51
72928;SHT30;61071;51.618;19.388;2023-03-21T01:30:51;9.13;85.17
72928;SHT30;61071;51.618;19.388;2023-03-21T01:33:18;9.13;85.48
72928;SHT30;61071;51.618;19.388;2023-03-21T01:35:45;9.17;85.51
72928;SHT30;61071;51.618;19.388;2023-03-21T01:38:12;9.04;85.78
72928;SHT30;61071;51.618;19.388;2023-03-21T01:40:40;9.04;85.93
72928;SHT30;61071;51.618;19.388;2023-03-21T01:43:37;8.93;85.96
72928;SHT30;61071;51.618;19.388;2023-03-21T01:46:31;8.71;86.66
72928;SHT30;61071;51.618;19.388;2023-03-21T01:51:39;8.87;86.54
72928;SHT30;61071;51.618;19.388;2023-03-21T01:54:15;8.92;86.33
72928;SHT30;61071;51.618;19.388;2023-03-21T01:56:45;9.10;85.88
72928;SHT30;61071;51.618;19.388;2023-03-21T01:59:24;9.02;85.72
72928;SHT30;61071;51.618;19.388;2023-03-21T02:01:53;8.97;85.86
72928;SHT30;61071;51.618;19.388;2023-03-21T02:04:20;8.89;86.56
72928;SHT30;61071;51.618;19.388;2023-03-21T02:07:03;8.44;87.57
72928;SHT30;61071;51.618;19.388;2023-03-21T02:09:34;8.76;86.95
72928;SHT30;61071;51.618;19.388;2023-03-21T02:12:02;8.89;86.56
72928;SHT30;61071;51.618;19.388;2023-03-21T02:14:32;8.86;85.99
72928;SHT30;61071;51.618;19.388;2023-03-21T02:35:20;8.89;85.31
72928;SHT30;61071;51.618;19.388;2023-03-21T02:38:00;8.92;85.16
72928;SHT30;61071;51.618;19.388;2023-03-21T02:40:42;8.73;85.02
72928;SHT30;61071;51.618;19.388;2023-03-21T02:43:16;8.63;85.92
72928;SHT30;61071;51.618;19.388;2023-03-21T02:48:46;8.46;86.32
72928;SHT30;61071;51.618;19.388;2023-03-21T02:51:18;8.40;87.20
72928;SHT30;61071;51.618;19.388;2023-03-21T02:53:51;8.31;87.23
72928;SHT30;61071;51.618;19.388;2023-03-21T02:56:20;8.49;86.42
72928;SHT30;61071;51.618;19.388;2023-03-21T02:58:48;8.54;86.47
72928;SHT30;61071;51.618;19.388;2023-03-21T03:01:13;8.25;87.33
72928;SHT30;61071;51.618;19.388;2023-03-21T03:03:39;8.35;87.08
72928;SHT30;61071;51.618;19.388;2023-03-21T03:07:33;8.34;87.04
72928;SHT30;61071;51.618;19.388;2023-03-21T03:21:30;8.73;85.25
72928;SHT30;61071;51.618;19.388;2023-03-21T03:24:09;8.68;84.96
72928;SHT30;61071;51.618;19.388;2023-03-21T03:26:47;8.51;85.75
72928;SHT30;61071;51.618;19.388;2023-03-21T03:29:18;8.56;86.02
72928;SHT30;61071;51.618;19.388;2023-03-21T03:31:52;8.45;86.27
72928;SHT30;61071;51.618;19.388;2023-03-21T03:34:25;8.40;86.58
72928;SHT30;61071;51.618;19.388;2023-03-21T03:36:58;8.58;86.25
72928;SHT30;61071;51.618;19.388;2023-03-21T03:39:37;8.61;85.85
72928;SHT30;61071;51.618;19.388;2023-03-21T03:42:16;8.54;85.87
72928;SHT30;61071;51.618;19.388;2023-03-21T03:44:43;8.48;86.31
72928;SHT30;61071;51.618;19.388;2023-03-21T03:47:33;8.40;86.59
72928;SHT30;61071;51.618;19.388;2023-03-21T03:52:54;8.51;86.30
72928;SHT30;61071;51.618;19.388;2023-03-21T03:55:22;8.52;86.40
72928;SHT30;61071;51.618;19.388;2023-03-21T03:57:53;8.51;86.30
72928;SHT30;61071;51.618;19.388;2023-03-21T04:00:19;8.58;86.31
72928;SHT30;61071;51.618;19.388;2023-03-21T04:02:45;8.56;86.12
72928;SHT30;61071;51.618;19.388;2023-03-21T04:05:12;8.55;86.16
72928;SHT30;61071;51.618;19.388;2023-03-21T04:07:38;8.58;85.99
72928;SHT30;61071;51.618;19.388;2023-03-21T04:10:04;8.65;85.83
72928;SHT30;61071;51.618;19.388;2023-03-21T04:12:30;8.65;85.62
72928;SHT30;61071;51.618;19.388;2023-03-21T04:14:56;8.62;85.56
72928;SHT30;61071;51.618;19.388;2023-03-21T04:17:22;8.51;86.08
72928;SHT30;61071;51.618;19.388;2023-03-21T04:19:47;8.61;85.70
72928;SHT30;61071;51.618;19.388;2023-03-21T04:22:16;8.54;85.73
72928;SHT30;61071;51.618;19.388;2023-03-21T04:24:42;8.46;86.33
72928;SHT30;61071;51.618;19.388;2023-03-21T04:27:09;8.46;86.45
72928;SHT30;61071;51.618;19.388;2023-03-21T04:29:34;8.62;85.93
72928;SHT30;61071;51.618;19.388;2023-03-21T04:32:00;8.65;85.61
72928;SHT30;61071;51.618;19.388;2023-03-21T04:34:26;8.65;85.46
72928;SHT30;61071;51.618;19.388;2023-03-21T04:36:55;8.61;85.42
72928;SHT30;61071;51.618;19.388;2023-03-21T04:39:22;8.68;85.40
72928;SHT30;61071;51.618;19.388;2023-03-21T04:41:49;8.68;85.71
72928;SHT30;61071;51.618;19.388;2023-03-21T04:44:16;8.76;85.54
72928;SHT30;61071;51.618;19.388;2023-03-21T04:46:43;8.76;85.51
72928;SHT30;61071;51.618;19.388;2023-03-21T04:49:09;8.83;85.21
72928;SHT30;61071;51.618;19.388;2023-03-21T04:51:36;8.82;85.28
72928;SHT30;61071;51.618;19.388;2023-03-21T04:54:02;8.77;85.32
72928;SHT30;61071;51.618;19.388;2023-03-21T04:56:29;8.84;85.17
72928;SHT30;61071;51.618;19.388;2023-03-21T04:58:59;8.80;85.47
72928;SHT30;61071;51.618;19.388;2023-03-21T05:01:25;8.87;85.45
72928;SHT30;61071;51.618;19.388;2023-03-21T05:04:00;8.83;85.33
72928;SHT30;61071;51.618;19.388;2023-03-21T05:06:27;8.77;85.64
72928;SHT30;61071;51.618;19.388;2023-03-21T05:08:55;8.76;85.62
72928;SHT30;61071;51.618;19.388;2023-03-21T05:11:26;8.75;85.91
72928;SHT30;61071;51.618;19.388;2023-03-21T05:13:52;8.56;86.51
72928;SHT30;61071;51.618;19.388;2023-03-21T05:16:18;8.59;86.97
72928;SHT30;61071;51.618;19.388;2023-03-21T05:18:43;8.55;87.06
72928;SHT30;61071;51.618;19.388;2023-03-21T05:21:09;8.66;86.77
72928;SHT30;61071;51.618;19.388;2023-03-21T05:23:36;8.65;86.78
72928;SHT30;61071;51.618;19.388;2023-03-21T05:26:07;8.62;86.85
72928;SHT30;61071;51.618;19.388;2023-03-21T05:28:34;8.61;87.08
72928;SHT30;61071;51.618;19.388;2023-03-21T05:31:04;8.66;86.95
72928;SHT30;61071;51.618;19.388;2023-03-21T05:33:31;8.68;87.05
72928;SHT30;61071;51.618;19.388;2023-03-21T05:35:57;8.72;87.06
72928;SHT30;61071;51.618;19.388;2023-03-21T05:38:24;8.72;87.08
72928;SHT30;61071;51.618;19.388;2023-03-21T05:40:51;8.72;86.93
72928;SHT30;61071;51.618;19.388;2023-03-21T05:43:18;8.58;87.29
72928;SHT30;61071;51.618;19.388;2023-03-21T05:45:44;8.69;87.59
72928;SHT30;61071;51.618;19.388;2023-03-21T05:48:09;8.63;87.31
72928;SHT30;61071;51.618;19.388;2023-03-21T05:50:37;8.68;87.45
72928;SHT30;61071;51.618;19.388;2023-03-21T05:53:03;8.72;87.48
72928;SHT30;61071;51.618;19.388;2023-03-21T05:55:29;8.72;87.56
72928;SHT30;61071;51.618;19.388;2023-03-21T05:57:55;8.68;87.85
72928;SHT30;61071;51.618;19.388;2023-03-21T06:00:20;8.65;87.70
72928;SHT30;61071;51.618;19.388;2023-03-21T06:02:46;8.76;87.74
72928;SHT30;61071;51.618;19.388;2023-03-21T06:05:12;8.80;87.61
72928;SHT30;61071;51.618;19.388;2023-03-21T06:07:38;8.79;87.74
72928;SHT30;61071;51.618;19.388;2023-03-21T06:10:05;8.55;87.98
72928;SHT30;61071;51.618;19.388;2023-03-21T06:12:31;8.68;88.04
72928;SHT30;61071;51.618;19.388;2023-03-21T06:14:57;8.73;87.78
72928;SHT30;61071;51.618;19.388;2023-03-21T06:17:24;8.76;87.43
72928;SHT30;61071;51.618;19.388;2023-03-21T06:19:49;8.76;87.35
72928;SHT30;61071;51.618;19.388;2023-03-21T06:22:15;8.82;87.51
72928;SHT30;61071;51.618;19.388;2023-03-21T06:24:41;8.89;87.25
72928;SHT30;61071;51.618;19.388;2023-03-21T06:27:06;8.89;87.23
72928;SHT30;61071;51.618;19.388;2023-03-21T06:29:32;8.97;86.88
72928;SHT30;61071;51.618;19.388;2023-03-21T06:31:57;9.03;86.85
72928;SHT30;61071;51.618;19.388;2023-03-21T06:34:23;9.09;86.63
72928;SHT30;61071;51.618;19.388;2023-03-21T06:36:49;9.04;86.88
72928;SHT30;61071;51.618;19.388;2023-03-21T06:39:16;9.16;86.90
72928;SHT30;61071;51.618;19.388;2023-03-21T06:41:42;8.99;87.19
72928;SHT30;61071;51.618;19.388;2023-03-21T06:44:08;9.20;86.92
72928;SHT30;61071;51.618;19.388;2023-03-21T06:46:33;9.26;86.66
72928;SHT30;61071;51.618;19.388;2023-03-21T06:48:59;9.42;86.12
72928;SHT30;61071;51.618;19.388;2023-03-21T06:51:25;9.54;85.99
72928;SHT30;61071;51.618;19.388;2023-03-21T06:53:51;9.44;85.76
72928;SHT30;61071;51.618;19.388;2023-03-21T06:56:16;9.65;85.58
72928;SHT30;61071;51.618;19.388;2023-03-21T06:58:42;9.71;85.72
72928;SHT30;61071;51.618;19.388;2023-03-21T07:01:07;9.88;84.97
72928;SHT30;61071;51.618;19.388;2023-03-21T07:03:33;9.88;84.68
72928;SHT30;61071;51.618;19.388;2023-03-21T07:06:08;9.89;84.04
72928;SHT30;61071;51.618;19.388;2023-03-21T07:08:40;9.55;83.06
72928;SHT30;61071;51.618;19.388;2023-03-21T07:11:06;9.42;83.49
72928;SHT30;61071;51.618;19.388;2023-03-21T07:13:32;9.45;83.36
72928;SHT30;61071;51.618;19.388;2023-03-21T07:15:59;9.20;83.64
72928;SHT30;61071;51.618;19.388;2023-03-21T07:18:25;9.13;84.22
72928;SHT30;61071;51.618;19.388;2023-03-21T07:20:51;8.96;84.09
72928;SHT30;61071;51.618;19.388;2023-03-21T07:23:19;8.73;84.55
72928;SHT30;61071;51.618;19.388;2023-03-21T07:25:49;8.72;84.58
72928;SHT30;61071;51.618;19.388;2023-03-21T07:28:16;8.80;84.85
72928;SHT30;61071;51.618;19.388;2023-03-21T07:30:44;8.76;84.79
72928;SHT30;61071;51.618;19.388;2023-03-21T07:33:11;8.71;86.04
72928;SHT30;61071;51.618;19.388;2023-03-21T07:35:37;8.86;85.78
72928;SHT30;61071;51.618;19.388;2023-03-21T07:38:04;9.16;85.46
72928;SHT30;61071;51.618;19.388;2023-03-21T07:40:31;9.23;85.26
72928;SHT30;61071;51.618;19.388;2023-03-21T07:42:57;9.24;84.58
72928;SHT30;61071;51.618;19.388;2023-03-21T07:45:23;9.20;83.97
72928;SHT30;61071;51.618;19.388;2023-03-21T07:47:51;9.23;83.63
72928;SHT30;61071;51.618;19.388;2023-03-21T07:50:18;9.32;83.92
72928;SHT30;61071;51.618;19.388;2023-03-21T07:52:44;9.19;83.13
72928;SHT30;61071;51.618;19.388;2023-03-21T07:55:11;9.28;84.01
72928;SHT30;61071;51.618;19.388;2023-03-21T07:57:36;9.13;83.89
72928;SHT30;61071;51.618;19.388;2023-03-21T08:00:04;9.24;83.58
72928;SHT30;61071;51.618;19.388;2023-03-21T08:02:31;9.24;83.01
72928;SHT30;61071;51.618;19.388;2023-03-21T08:04:57;8.86;83.46
72928;SHT30;61071;51.618;19.388;2023-03-21T08:07:23;8.96;83.18
72928;SHT30;61071;51.618;19.388;2023-03-21T08:09:49;9.04;83.76
72928;SHT30;61071;51.618;19.388;2023-03-21T08:12:14;9.17;83.00
72928;SHT30;61071;51.618;19.388;2023-03-21T08:14:41;9.21;82.35
72928;SHT30;61071;51.618;19.388;2023-03-21T08:17:07;9.24;82.50
72928;SHT30;61071;51.618;19.388;2023-03-21T08:19:34;9.16;81.94
72928;SHT30;61071;51.618;19.388;2023-03-21T08:22:00;9.48;81.27
72928;SHT30;61071;51.618;19.388;2023-03-21T08:24:27;9.47;80.43
72928;SHT30;61071;51.618;19.388;2023-03-21T08:26:53;9.65;80.33
72928;SHT30;61071;51.618;19.388;2023-03-21T08:29:19;9.65;80.46
72928;SHT30;61071;51.618;19.388;2023-03-21T08:31:46;9.74;80.25
72928;SHT30;61071;51.618;19.388;2023-03-21T08:34:12;9.69;80.57
72928;SHT30;61071;51.618;19.388;2023-03-21T08:36:38;9.83;79.97
72928;SHT30;61071;51.618;19.388;2023-03-21T08:39:05;9.72;79.90
72928;SHT30;61071;51.618;19.388;2023-03-21T08:41:32;9.75;80.52
72928;SHT30;61071;51.618;19.388;2023-03-21T08:43:57;9.85;80.49
72928;SHT30;61071;51.618;19.388;2023-03-21T08:46:23;9.85;79.96
72928;SHT30;61071;51.618;19.388;2023-03-21T08:48:49;9.63;79.76
72928;SHT30;61071;51.618;19.388;2023-03-21T08:51:15;9.37;79.44
72928;SHT30;61071;51.618;19.388;2023-03-21T08:53:41;9.59;80.23
72928;SHT30;61071;51.618;19.388;2023-03-21T08:56:09;9.59;79.55
72928;SHT30;61071;51.618;19.388;2023-03-21T08:58:36;9.82;78.87
72928;SHT30;61071;51.618;19.388;2023-03-21T09:01:03;10.17;78.54
72928;SHT30;61071;51.618;19.388;2023-03-21T09:03:29;10.40;77.80
72928;SHT30;61071;51.618;19.388;2023-03-21T09:05:55;10.10;76.56
72928;SHT30;61071;51.618;19.388;2023-03-21T09:08:21;9.95;76.66
72928;SHT30;61071;51.618;19.388;2023-03-21T09:10:56;9.96;78.09
72928;SHT30;61071;51.618;19.388;2023-03-21T09:13:23;9.95;76.77
72928;SHT30;61071;51.618;19.388;2023-03-21T09:15:49;9.48;77.90
72928;SHT30;61071;51.618;19.388;2023-03-21T09:18:15;9.68;77.23
72928;SHT30;61071;51.618;19.388;2023-03-21T09:20:45;9.45;78.31
72928;SHT30;61071;51.618;19.388;2023-03-21T09:23:13;9.67;78.26
72928;SHT30;61071;51.618;19.388;2023-03-21T09:25:40;9.69;79.24
72928;SHT30;61071;51.618;19.388;2023-03-21T09:28:06;9.72;77.98
72928;SHT30;61071;51.618;19.388;2023-03-21T09:30:34;9.75;77.78
72928;SHT30;61071;51.618;19.388;2023-03-21T09:33:03;9.47;77.47
72928;SHT30;61071;51.618;19.388;2023-03-21T09:35:31;9.27;78.15
72928;SHT30;61071;51.618;19.388;2023-03-21T09:37:57;9.19;79.05
72928;SHT30;61071;51.618;19.388;2023-03-21T09:41:03;9.26;78.64
72928;SHT30;61071;51.618;19.388;2023-03-21T09:44:19;9.40;78.24
72928;SHT30;61071;51.618;19.388;2023-03-21T09:47:16;9.65;78.18
72928;SHT30;61071;51.618;19.388;2023-03-21T09:49:56;9.72;76.90
72928;SHT30;61071;51.618;19.388;2023-03-21T09:52:48;9.83;77.42
72928;SHT30;61071;51.618;19.388;2023-03-21T09:55:28;10.07;76.70
72928;SHT30;61071;51.618;19.388;2023-03-21T10:01:01;10.17;75.12
72928;SHT30;61071;51.618;19.388;2023-03-21T10:03:35;9.99;75.70
72928;SHT30;61071;51.618;19.388;2023-03-21T10:06:09;9.83;75.88
72928;SHT30;61071;51.618;19.388;2023-03-21T10:08:44;9.59;76.19
72928;SHT30;61071;51.618;19.388;2023-03-21T10:11:23;9.52;76.27
72928;SHT30;61071;51.618;19.388;2023-03-21T10:16:46;9.67;76.78
72928;SHT30;61071;51.618;19.388;2023-03-21T10:19:17;9.71;76.95
72928;SHT30;61071;51.618;19.388;2023-03-21T10:21:47;9.69;77.53
72928;SHT30;61071;51.618;19.388;2023-03-21T10:24:21;9.47;78.50
72928;SHT30;61071;51.618;19.388;2023-03-21T10:26:50;9.40;78.17
72928;SHT30;61071;51.618;19.388;2023-03-21T10:29:21;9.49;78.09
72928;SHT30;61071;51.618;19.388;2023-03-21T10:31:49;9.41;78.64
72928;SHT30;61071;51.618;19.388;2023-03-21T10:34:44;9.47;79.28
72928;SHT30;61071;51.618;19.388;2023-03-21T10:37:13;9.58;77.66
72928;SHT30;61071;51.618;19.388;2023-03-21T10:39:43;9.54;77.00
72928;SHT30;61071;51.618;19.388;2023-03-21T10:42:36;9.37;77.44
72928;SHT30;61071;51.618;19.388;2023-03-21T10:45:01;9.63;77.19
72928;SHT30;61071;51.618;19.388;2023-03-21T10:47:31;9.76;77.36
72928;SHT30;61071;51.618;19.388;2023-03-21T10:50:05;9.79;75.97
72928;SHT30;61071;51.618;19.388;2023-03-21T10:52:32;10.09;76.14
72928;SHT30;61071;51.618;19.388;2023-03-21T10:55:28;9.97;75.68
72928;SHT30;61071;51.618;19.388;2023-03-21T10:58:09;9.88;76.24
72928;SHT30;61071;51.618;19.388;2023-03-21T11:00:45;10.23;75.50
72928;SHT30;61071;51.618;19.388;2023-03-21T11:03:23;10.05;74.96
72928;SHT30;61071;51.618;19.388;2023-03-21T11:05:58;10.21;74.87
72928;SHT30;61071;51.618;19.388;2023-03-21T11:08:26;10.37;74.81
72928;SHT30;61071;51.618;19.388;2023-03-21T11:11:03;10.57;74.39
72928;SHT30;61071;51.618;19.388;2023-03-21T11:13:39;10.47;73.74
72928;SHT30;61071;51.618;19.388;2023-03-21T11:16:17;10.47;73.76
72928;SHT30;61071;51.618;19.388;2023-03-21T11:18:51;10.41;73.55
72928;SHT30;61071;51.618;19.388;2023-03-21T11:21:17;10.38;73.84
72928;SHT30;61071;51.618;19.388;2023-03-21T11:23:48;10.47;73.47
72928;SHT30;61071;51.618;19.388;2023-03-21T11:26:41;10.24;74.67
72928;SHT30;61071;51.618;19.388;2023-03-21T11:31:48;9.72;74.58
72928;SHT30;61071;51.618;19.388;2023-03-21T11:37:51;10.20;73.56
72928;SHT30;61071;51.618;19.388;2023-03-21T11:40:29;10.03;74.27
72928;SHT30;61071;51.618;19.388;2023-03-21T11:42:59;10.05;73.62
72928;SHT30;61071;51.618;19.388;2023-03-21T11:45:32;10.32;73.60
72928;SHT30;61071;51.618;19.388;2023-03-21T11:48:03;10.72;73.33
72928;SHT30;61071;51.618;19.388;2023-03-21T11:50:46;10.47;73.27
72928;SHT30;61071;51.618;19.388;2023-03-21T11:53:44;10.85;72.87
72928;SHT30;61071;51.618;19.388;2023-03-21T12:05:17;11.10;71.06
72928;SHT30;61071;51.618;19.388;2023-03-21T12:11:28;10.78;70.13
72928;SHT30;61071;51.618;19.388;2023-03-21T12:16:46;10.92;70.42
72928;SHT30;61071;51.618;19.388;2023-03-21T12:19:48;10.71;70.61
72928;SHT30;61071;51.618;19.388;2023-03-21T12:22:24;10.86;70.32
72928;SHT30;61071;51.618;19.388;2023-03-21T12:24:55;11.10;69.62
72928;SHT30;61071;51.618;19.388;2023-03-21T12:30:42;11.01;70.03
72928;SHT30;61071;51.618;19.388;2023-03-21T12:36:58;11.01;71.07
72928;SHT30;61071;51.618;19.388;2023-03-21T12:39:33;10.79;71.52
72928;SHT30;61071;51.618;19.388;2023-03-21T12:44:40;10.69;71.07
72928;SHT30;61071;51.618;19.388;2023-03-21T12:47:15;10.41;71.73
72928;SHT30;61071;51.618;19.388;2023-03-21T12:49:58;10.43;72.02
72928;SHT30;61071;51.618;19.388;2023-03-21T12:52:41;10.53;71.30
72928;SHT30;61071;51.618;19.388;2023-03-21T12:55:27;10.95;71.74
72928;SHT30;61071;51.618;19.388;2023-03-21T12:58:13;11.30;67.45
72928;SHT30;61071;51.618;19.388;2023-03-21T13:00:47;11.27;67.98
72928;SHT30;61071;51.618;19.388;2023-03-21T13:03:29;11.51;68.65
72928;SHT30;61071;51.618;19.388;2023-03-21T13:05:59;11.66;66.28
72928;SHT30;61071;51.618;19.388;2023-03-21T13:08:38;11.91;67.21
72928;SHT30;61071;51.618;19.388;2023-03-21T13:11:07;12.25;66.89
72928;SHT30;61071;51.618;19.388;2023-03-21T13:16:38;11.68;66.62
72928;SHT30;61071;51.618;19.388;2023-03-21T13:19:31;11.41;66.50
72928;SHT30;61071;51.618;19.388;2023-03-21T13:24:47;10.65;69.49
72928;SHT30;61071;51.618;19.388;2023-03-21T13:27:31;10.95;69.99
72928;SHT30;61071;51.618;19.388;2023-03-21T13:32:41;11.19;68.45
72928;SHT30;61071;51.618;19.388;2023-03-21T13:35:23;11.08;69.18
72928;SHT30;61071;51.618;19.388;2023-03-21T13:37:59;11.26;69.35
72928;SHT30;61071;51.618;19.388;2023-03-21T13:40:56;11.51;68.88
72928;SHT30;61071;51.618;19.388;2023-03-21T13:43:42;11.33;67.72
72928;SHT30;61071;51.618;19.388;2023-03-21T13:46:12;10.88;66.85
72928;SHT30;61071;51.618;19.388;2023-03-21T13:51:50;10.51;68.63
72928;SHT30;61071;51.618;19.388;2023-03-21T13:59:37;10.72;68.56
72928;SHT30;61071;51.618;19.388;2023-03-21T14:05:22;10.76;68.45
72928;SHT30;61071;51.618;19.388;2023-03-21T14:07:57;10.82;69.48
72928;SHT30;61071;51.618;19.388;2023-03-21T14:10:38;10.98;68.57
72928;SHT30;61071;51.618;19.388;2023-03-21T14:13:06;10.88;68.40
72928;SHT30;61071;51.618;19.388;2023-03-21T14:15:44;10.72;68.43
72928;SHT30;61071;51.618;19.388;2023-03-21T14:18:19;10.72;68.58
72928;SHT30;61071;51.618;19.388;2023-03-21T14:20:51;10.58;69.37
72928;SHT30;61071;51.618;19.388;2023-03-21T14:23:17;10.55;70.35
72928;SHT30;61071;51.618;19.388;2023-03-21T14:25:44;10.44;69.94
72928;SHT30;61071;51.618;19.388;2023-03-21T14:28:32;10.67;69.86
72928;SHT30;61071;51.618;19.388;2023-03-21T14:31:00;10.79;68.53
72928;SHT30;61071;51.618;19.388;2023-03-21T14:33:37;10.69;68.69
72928;SHT30;61071;51.618;19.388;2023-03-21T14:36:18;11.19;68.41
72928;SHT30;61071;51.618;19.388;2023-03-21T14:39:04;11.12;68.39
72928;SHT30;61071;51.618;19.388;2023-03-21T14:41:34;11.03;67.52
72928;SHT30;61071;51.618;19.388;2023-03-21T14:44:21;11.16;67.25
72928;SHT30;61071;51.618;19.388;2023-03-21T14:47:16;11.27;66.96
72928;SHT30;61071;51.618;19.388;2023-03-21T14:49:43;11.34;67.62
72928;SHT30;61071;51.618;19.388;2023-03-21T14:52:19;11.16;66.62
72928;SHT30;61071;51.618;19.388;2023-03-21T14:54:47;11.43;66.34
72928;SHT30;61071;51.618;19.388;2023-03-21T14:57:24;11.44;64.98
72928;SHT30;61071;51.618;19.388;2023-03-21T14:59:54;11.41;65.85
72928;SHT30;61071;51.618;19.388;2023-03-21T15:02:33;11.40;64.04
72928;SHT30;61071;51.618;19.388;2023-03-21T15:07:40;11.30;64.98
72928;SHT30;61071;51.618;19.388;2023-03-21T15:10:14;11.53;65.06
72928;SHT30;61071;51.618;19.388;2023-03-21T15:12:55;11.56;64.57
72928;SHT30;61071;51.618;19.388;2023-03-21T15:15:23;11.74;64.26
72928;SHT30;61071;51.618;19.388;2023-03-21T15:17:51;11.91;64.08
72928;SHT30;61071;51.618;19.388;2023-03-21T15:20:22;11.68;64.41
72928;SHT30;61071;51.618;19.388;2023-03-21T15:22:57;11.39;64.83
72928;SHT30;61071;51.618;19.388;2023-03-21T15:25:32;11.34;65.18
72928;SHT30;61071;51.618;19.388;2023-03-21T15:27:59;11.61;63.95
72928;SHT30;61071;51.618;19.388;2023-03-21T15:30:29;11.33;63.97
72928;SHT30;61071;51.618;19.388;2023-03-21T15:33:00;11.63;64.13
72928;SHT30;61071;51.618;19.388;2023-03-21T15:35:39;11.78;63.95
72928;SHT30;61071;51.618;19.388;2023-03-21T15:38:06;11.70;63.11
72928;SHT30;61071;51.618;19.388;2023-03-21T15:40:33;11.50;63.50
72928;SHT30;61071;51.618;19.388;2023-03-21T15:43:17;11.53;63.98
72928;SHT30;61071;51.618;19.388;2023-03-21T15:45:54;11.09;64.69
72928;SHT30;61071;51.618;19.388;2023-03-21T15:48:24;10.99;64.58
72928;SHT30;61071;51.618;19.388;2023-03-21T15:51:03;11.06;65.43
72928;SHT30;61071;51.618;19.388;2023-03-21T15:53:35;11.22;64.75
72928;SHT30;61071;51.618;19.388;2023-03-21T15:56:03;11.23;64.47
72928;SHT30;61071;51.618;19.388;2023-03-21T15:58:38;11.47;63.47
72928;SHT30;61071;51.618;19.388;2023-03-21T16:01:15;11.43;64.63
72928;SHT30;61071;51.618;19.388;2023-03-21T16:03:46;11.66;63.51
72928;SHT30;61071;51.618;19.388;2023-03-21T16:06:16;11.74;62.81
72928;SHT30;61071;51.618;19.388;2023-03-21T16:09:03;11.53;62.78
72928;SHT30;61071;51.618;19.388;2023-03-21T16:11:40;11.54;62.40
72928;SHT30;61071;51.618;19.388;2023-03-21T16:14:06;11.39;63.30
72928;SHT30;61071;51.618;19.388;2023-03-21T16:16:32;11.27;62.25
72928;SHT30;61071;51.618;19.388;2023-03-21T16:18:59;10.85;64.83
72928;SHT30;61071;51.618;19.388;2023-03-21T16:21:29;10.89;64.83
72928;SHT30;61071;51.618;19.388;2023-03-21T16:23:56;10.91;64.80
72928;SHT30;61071;51.618;19.388;2023-03-21T16:26:29;10.92;64.51
72928;SHT30;61071;51.618;19.388;2023-03-21T16:28:55;11.05;64.42
72928;SHT30;61071;51.618;19.388;2023-03-21T16:31:26;10.93;64.67
72928;SHT30;61071;51.618;19.388;2023-03-21T16:33:52;10.93;65.39
72928;SHT30;61071;51.618;19.388;2023-03-21T16:36:25;10.61;66.80
72928;SHT30;61071;51.618;19.388;2023-03-21T16:38:53;10.54;67.61
72928;SHT30;61071;51.618;19.388;2023-03-21T16:41:22;10.45;67.78
72928;SHT30;61071;51.618;19.388;2023-03-21T16:43:48;10.43;67.89
72928;SHT30;61071;51.618;19.388;2023-03-21T16:46:24;10.33;67.99
72928;SHT30;61071;51.618;19.388;2023-03-21T16:48:54;10.13;68.72
72928;SHT30;61071;51.618;19.388;2023-03-21T16:51:30;10.09;68.73
72928;SHT30;61071;51.618;19.388;2023-03-21T16:53:57;10.05;68.75
72928;SHT30;61071;51.618;19.388;2023-03-21T16:56:28;9.88;69.59
72928;SHT30;61071;51.618;19.388;2023-03-21T16:58:54;9.65;70.55
72928;SHT30;61071;51.618;19.388;2023-03-21T17:01:22;9.48;71.62
72928;SHT30;61071;51.618;19.388;2023-03-21T17:03:52;9.09;73.33
72928;SHT30;61071;51.618;19.388;2023-03-21T17:06:22;9.06;72.89
72928;SHT30;61071;51.618;19.388;2023-03-21T17:08:50;8.96;73.11
72928;SHT30;61071;51.618;19.388;2023-03-21T17:11:20;8.77;73.76
72928;SHT30;61071;51.618;19.388;2023-03-21T17:13:48;8.37;75.80
72928;SHT30;61071;51.618;19.388;2023-03-21T17:16:18;8.44;74.81
72928;SHT30;61071;51.618;19.388;2023-03-21T17:18:45;8.44;74.54
72928;SHT30;61071;51.618;19.388;2023-03-21T17:21:20;8.38;74.33
72928;SHT30;61071;51.618;19.388;2023-03-21T17:23:46;8.25;74.36
72928;SHT30;61071;51.618;19.388;2023-03-21T17:26:21;7.93;75.45
72928;SHT30;61071;51.618;19.388;2023-03-21T17:28:48;7.73;76.51